Au Sable Chasm, New York
Current Conditions -  °F | °C
As of 9:53 PM on Saturday 24 Jan 2015 (Local Time) from KPBG Reporting Station
Light Snow Light Snow  
Wind Chill: 32°   Ceiling: 4300
Heat Index: 32°   Visibility: 7mi
Dew Point: 24°   Wind: 3mph
Humidity: 73%   Direction: NA
Pressure: 29.31"   Gusts: NA
Location:  44.5125°N, 73.5235°W
Report Text: KPBG 250253Z AUTO VRB03KT 7SM -SN FEW033 BKN043 OVC055 00/M04 A2931 RMK AO2 SNE0157B50 SLP928 P0000 60000 T00001044 58008
Loading
Personal Weather Stations






























Interactive Weather Map New forecast layout! Learn more

10-Day Weather Forecast

Advertisements
Track Severe Weather on mobile